»·PEaware :: UAL1399 KTUS-KPHX

UAL1399 :: KTUS-KPHX

FLIGHT INFORMATION

Flight Status: Arrived
Operator:
United Airlines
More flights by this operator :: More flights under this callsign
Pilot: David C. (16084)
Aircraft: SAAB 340
(SF34)
More flights by this aircraft type
Origin: KTUS Tucson Intl
United States
Destination: KPHX Phoenix Sky Harbor Intl
United States
More flights between these airports :: More routes between these airports
Route: TUS8 TUS V105 PXR
File this flight plan on PilotEdge
Remarks:
Altitude:
(Current/Filed)
14,000ft
Speed:
(Current/Filed)
284kts
Departed: 18-Jul-18 10:06 AM
Arrived: 18-Jul-18 10:38 AM
Distance/Time
Traveled:
96nm/0:31
Distance/Time
To Go:
Arrived

Flight Plot

Page will automatically refresh every two minutes.

Flight plan parsing failed; only flown route is shown


Map Options




Map Legend


Flown Route
Filed Route
Departure Airport
Arrival Airport
Navaid (VOR, NDB)
Fix

Horizontal Profiles

Position Reports

Time Latitude Longitude Heading Altitude Ground
Speed
18-Jul-18 09:46 32.121407 -110.940232 241 2648ft 0kts
18-Jul-18 09:47 32.121407 -110.940232 241 2648ft 0kts
18-Jul-18 09:48 32.121407 -110.940232 241 2648ft 0kts
18-Jul-18 09:49 32.121407 -110.940232 241 2648ft 0kts
18-Jul-18 09:50 32.121407 -110.940232 241 2648ft 0kts
18-Jul-18 09:51 32.121407 -110.940232 241 2648ft 0kts
18-Jul-18 09:52 32.121407 -110.940232 241 2648ft 0kts
18-Jul-18 09:53 32.121407 -110.940232 241 2648ft 0kts
18-Jul-18 09:54 32.121407 -110.940232 241 2648ft 0kts
18-Jul-18 09:55 32.121407 -110.940232 241 2648ft 0kts
18-Jul-18 09:56 32.121407 -110.940232 241 2648ft 0kts
18-Jul-18 09:57 32.121407 -110.940232 241 2648ft 0kts
18-Jul-18 09:58 32.121407 -110.940232 241 2648ft 0kts
18-Jul-18 09:59 32.121407 -110.940232 241 2648ft 0kts
18-Jul-18 10:00 32.121407 -110.940232 241 2648ft 0kts
18-Jul-18 10:01 32.121407 -110.940232 241 2648ft 0kts
18-Jul-18 10:02 32.121244 -110.940537 227 2648ft 7kts
18-Jul-18 10:03 32.121572 -110.943342 313 2648ft 16kts
18-Jul-18 10:04 32.123685 -110.946874 222 2648ft 0kts
18-Jul-18 10:05 32.123685 -110.946874 222 2648ft 0kts
18-Jul-18 10:06 32.123685 -110.946874 222 2648ft 0kts
18-Jul-18 10:07 32.119412 -110.943251 134 2648ft 104kts
18-Jul-18 10:08 32.084632 -110.914693 187 5069ft 161kts
18-Jul-18 10:09 32.062138 -110.957013 280 7149ft 183kts
18-Jul-18 10:10 32.104819 -110.989384 316 8995ft 205kts
18-Jul-18 10:11 32.140380 -111.044028 303 10687ft 216kts
18-Jul-18 10:12 32.172069 -111.102285 302 12282ft 217kts
18-Jul-18 10:13 32.204395 -111.162085 303 13842ft 219kts
18-Jul-18 10:14 32.241215 -111.230259 302 13989ft 268kts
18-Jul-18 10:15 32.282645 -111.307125 302 13975ft 284kts
18-Jul-18 10:16 32.325478 -111.386756 302 13965ft 289kts
18-Jul-18 10:17 32.368702 -111.467285 302 13964ft 290kts
18-Jul-18 10:18 32.427235 -111.530512 326 13962ft 288kts
18-Jul-18 10:19 32.492872 -111.584502 327 13964ft 288kts
18-Jul-18 10:20 32.558572 -111.638493 327 13951ft 288kts
18-Jul-18 10:21 32.623974 -111.692288 326 13931ft 288kts
18-Jul-18 10:22 32.689607 -111.746451 326 13926ft 288kts
18-Jul-18 10:23 32.755344 -111.800763 326 13926ft 288kts
18-Jul-18 10:24 32.821074 -111.855165 326 13926ft 288kts
18-Jul-18 10:25 32.887215 -111.907226 347 13889ft 286kts
18-Jul-18 10:26 32.964311 -111.917535 356 13927ft 283kts
18-Jul-18 10:27 33.039751 -111.916459 11 13056ft 253kts
18-Jul-18 10:28 33.103662 -111.903939 11 11564ft 228kts
18-Jul-18 10:29 33.170113 -111.889850 11 10111ft 261kts
18-Jul-18 10:30 33.239862 -111.874444 11 8597ft 242kts
18-Jul-18 10:31 33.302843 -111.860134 11 7111ft 227kts
18-Jul-18 10:32 33.357470 -111.829410 36 6462ft 226kts
18-Jul-18 10:33 33.406244 -111.788747 31 4753ft 211kts
18-Jul-18 10:34 33.440212 -111.810315 249 3075ft 194kts
18-Jul-18 10:35 33.428233 -111.865802 270 3040ft 165kts
18-Jul-18 10:36 33.429124 -111.919440 270 2601ft 150kts
18-Jul-18 10:37 33.428738 -111.964380 269 1823ft 124kts
18-Jul-18 10:38 33.428823 -112.004749 270 1155ft 116kts
18-Jul-18 10:39 33.429503 -112.016595 0 1139ft 0kts
18-Jul-18 10:40 33.429899 -112.016421 43 1139ft 9kts
18-Jul-18 10:41 33.431839 -112.015690 2 1139ft 0kts
18-Jul-18 10:42 33.432889 -112.014265 87 1139ft 18kts
18-Jul-18 10:43 33.434357 -112.013202 289 1139ft 11kts

Navigation Log

Ident Type
Flight plan parsing failed, navigation log unavailable